Orkoien, Spain
Current Conditions -  °F | °C
As of 8:00 AM on Sunday 26 Oct 2014 (Local Time) from LEPP Reporting Station
Clear Clear  
Wind Chill: 48°   Ceiling: Unl
Heat Index: 48°   Visibility: 6mi
Dew Point: 48°   Wind: 0mph
Humidity: 100%   Direction: NA
Pressure: 30.21"   Gusts: NA
Location:  42.82°N, 1.7°W
Report Text: LEPP 260600Z 00000KT CAVOK 09/09 Q1023
Loading
Personal Weather Stations






























Interactive Weather Map
Tropical Storm Tracking
New forecast layout! Learn more

10-Day Weather Forecast

Advertisements
Track Severe Weather on mobile